Time;durP1;ratioP1;P1;durP2;ratioP2;P2;SDS_P1;SDS_P2;PMS_P1;PMS_P2;Temp;Humidity;BMP_temperature;BMP_pressure;BME280_temperature;BME280_humidity;BME280_pressure;Samples;Min_cycle;Max_cycle;Signal;HPM_P1;HPM_P2
2022/09/14 00:00:54;;;;;;;9.03;1.73;;;14.10;99.90;;;;;;4859203;29;20438;-47
2022/09/14 00:03:19;;;;;;;6.00;1.77;;;14.10;99.90;;;;;;4859903;29;20457;-47
2022/09/14 00:05:45;;;;;;;6.17;2.37;;;14.00;99.90;;;;;;4858456;29;20204;-47
2022/09/14 00:08:11;;;;;;;4.93;1.60;;;14.00;99.90;;;;;;4860230;29;20180;-47
2022/09/14 00:10:39;;;;;;;8.70;2.30;;;14.00;99.90;;;;;;4860107;29;20272;-47
2022/09/14 00:13:05;;;;;;;7.73;2.23;;;14.00;1.00;;;;;;4859027;29;20496;-46
2022/09/14 00:15:30;;;;;;;3.93;1.60;;;14.00;1.00;;;;;;4860492;29;20446;-45
2022/09/14 00:17:56;;;;;;;5.53;1.80;;;13.90;1.00;;;;;;4860257;29;20605;-45
2022/09/14 00:20:21;;;;;;;6.80;1.70;;;13.90;1.00;;;;;;4858582;29;20200;-45
2022/09/14 00:22:47;;;;;;;10.03;1.70;;;13.90;1.00;;;;;;4858149;29;20217;-45
2022/09/14 00:25:13;;;;;;;6.47;1.97;;;13.90;1.00;;;;;;4859316;29;20189;-45
2022/09/14 00:27:39;;;;;;;5.90;2.00;;;13.90;1.00;;;;;;4859825;29;20273;-45
2022/09/14 00:30:05;;;;;;;8.63;1.80;;;13.90;1.00;;;;;;4859077;29;20295;-45
2022/09/14 00:32:31;;;;;;;4.17;2.03;;;13.80;1.00;;;;;;4858236;29;20452;-46
2022/09/14 00:34:57;;;;;;;7.03;1.80;;;13.80;1.00;;;;;;4859258;29;21164;-46
2022/09/14 00:37:23;;;;;;;8.67;2.10;;;13.80;17.40;;;;;;4859983;29;20221;-45
2022/09/14 00:39:49;;;;;;;5.93;2.00;;;13.80;1.00;;;;;;4858504;29;20537;-45
2022/09/14 00:42:18;;;;;;;5.67;2.27;;;13.80;1.00;;;;;;4855423;29;20228;-46
2022/09/14 00:44:46;;;;;;;5.53;1.90;;;13.80;1.00;;;;;;4859412;29;20534;-45
2022/09/14 00:47:14;;;;;;;19.27;8.37;;;13.80;1.00;;;;;;4858732;29;20568;-45
2022/09/14 00:49:42;;;;;;;14.97;2.60;;;13.80;99.90;;;;;;4859302;29;21379;-45
2022/09/14 00:52:25;;;;;;;21.33;5.50;;;13.80;99.90;;;;;;4853427;29;21373;-45
2022/09/14 00:54:57;;;;;;;8.60;3.00;;;13.70;99.90;;;;;;4841304;29;20494;-45
2022/09/14 00:57:24;;;;;;;7.50;2.23;;;13.70;99.90;;;;;;4841237;29;20407;-45
2022/09/14 00:59:52;;;;;;;14.47;2.70;;;13.70;99.90;;;;;;4841247;29;20419;-45
2022/09/14 01:02:20;;;;;;;5.43;2.00;;;13.70;99.90;;;;;;4845758;29;20457;-46
2022/09/14 01:04:46;;;;;;;6.90;1.97;;;13.60;1.00;;;;;;4858555;29;20469;-45
2022/09/14 01:07:37;;;;;;;6.23;2.33;;;13.60;1.00;;;;;;4857913;29;20485;-45
2022/09/14 01:10:20;;;;;;;7.90;2.80;;;13.60;99.90;;;;;;4859022;29;20473;-45
2022/09/14 01:12:58;;;;;;;10.67;2.80;;;13.50;99.90;;;;;;4856144;29;20433;-45
2022/09/14 01:15:26;;;;;;;17.27;2.67;;;13.50;99.90;;;;;;4859187;29;20911;-45
2022/09/14 01:18:17;;;;;;;9.70;2.50;;;13.50;1.00;;;;;;4859236;29;20897;-45
2022/09/14 01:21:11;;;;;;;5.77;2.20;;;13.40;1.00;;;;;;4857527;29;20963;-45
2022/09/14 01:24:22;;;;;;;7.30;2.00;;;13.40;1.00;;;;;;4849427;29;20541;-45
2022/09/14 01:27:21;;;;;;;8.30;2.30;;;13.30;1.00;;;;;;4852057;29;20449;-45
2022/09/14 01:30:08;;;;;;;19.20;8.73;;;13.30;53.50;;;;;;4856967;29;20477;-45
2022/09/14 01:32:55;;;;;;;37.00;19.00;;;13.20;99.90;;;;;;4858891;29;20608;-45
2022/09/14 01:35:30;;;;;;;7.83;2.80;;;13.20;99.90;;;;;;4840431;29;20415;-45
2022/09/14 01:38:02;;;;;;;7.60;3.10;;;13.20;1.00;;;;;;4840085;29;20450;-45
2022/09/14 01:40:36;;;;;;;10.70;2.77;;;13.30;27.00;;;;;;4840137;29;20422;-45
2022/09/14 01:43:10;;;;;;;13.83;2.33;;;13.20;98.00;;;;;;4855533;29;20943;-45
2022/09/14 01:45:41;;;;;;;11.47;1.90;;;13.30;10.70;;;;;;4858621;29;20431;-46
2022/09/14 01:48:09;;;;;;;6.93;2.20;;;13.20;99.90;;;;;;4859497;29;20947;-45
2022/09/14 01:50:45;;;;;;;7.97;1.90;;;13.20;99.90;;;;;;4859839;29;20480;-45
2022/09/14 01:53:36;;;;;;;12.83;2.60;;;13.20;99.90;;;;;;4859052;29;20402;-45
2022/09/14 01:56:45;;;;;;;11.23;2.40;;;13.10;50.90;;;;;;4841434;29;20399;-46
2022/09/14 01:59:25;;;;;;;6.37;1.70;;;13.10;70.20;;;;;;4851459;29;20488;-46
2022/09/14 02:01:58;;;;;;;9.70;2.00;;;13.10;99.90;;;;;;4861397;29;20458;-45
2022/09/14 02:04:38;;;;;;;7.40;2.00;;;13.10;99.90;;;;;;4858806;29;20449;-45
2022/09/14 02:07:04;;;;;;;4.00;2.20;;;13.00;99.90;;;;;;4860257;29;20402;-51
2022/09/14 02:09:30;;;;;;;7.60;2.23;;;13.00;1.00;;;;;;4859899;29;20518;-45
2022/09/14 02:11:59;;;;;;;4.20;2.07;;;13.00;99.90;;;;;;4846520;29;20193;-45
2022/09/14 02:14:25;;;;;;;6.30;2.27;;;13.00;99.90;;;;;;4849706;29;20192;-45
2022/09/14 02:16:51;;;;;;;12.63;2.23;;;13.00;99.90;;;;;;4867859;29;20781;-45
2022/09/14 02:19:17;;;;;;;11.27;2.90;;;13.00;99.90;;;;;;4873605;29;20954;-45
2022/09/14 02:21:42;;;;;;;9.93;2.80;;;13.00;1.00;;;;;;4859580;29;20190;-45
2022/09/14 02:24:09;;;;;;;10.13;2.23;;;13.00;6.40;;;;;;4855250;29;20289;-45
2022/09/14 02:26:36;;;;;;;11.73;2.17;;;12.90;99.90;;;;;;4858570;29;20196;-45
2022/09/14 02:29:03;;;;;;;6.00;2.10;;;12.90;1.00;;;;;;4846254;29;20533;-45
2022/09/14 02:31:56;;;;;;;13.30;2.23;;;13.00;1.00;;;;;;4853676;29;20445;-45
2022/09/14 02:34:46;;;;;;;10.80;2.10;;;13.00;1.00;;;;;;4847615;29;20790;-45
2022/09/14 02:37:36;;;;;;;13.93;2.20;;;12.90;1.00;;;;;;4845641;29;20437;-45
2022/09/14 02:40:05;;;;;;;11.10;2.40;;;12.90;1.00;;;;;;4846144;29;20456;-45
2022/09/14 02:43:02;;;;;;;11.50;2.60;;;12.80;99.90;;;;;;4846373;29;20906;-45
2022/09/14 02:45:42;;;;;;;6.50;2.30;;;12.80;99.90;;;;;;4844880;29;20450;-45
2022/09/14 02:48:13;;;;;;;12.33;2.43;;;12.80;1.00;;;;;;4846025;29;20468;-47
2022/09/14 02:51:02;;;;;;;12.10;2.57;;;12.80;1.00;;;;;;4845386;29;20453;-47
2022/09/14 02:53:49;;;;;;;9.97;2.20;;;12.70;1.00;;;;;;4846749;29;20433;-47
2022/09/14 02:56:16;;;;;;;7.03;2.23;;;12.70;1.00;;;;;;4844117;29;20453;-47
2022/09/14 02:58:44;;;;;;;15.37;2.83;;;12.60;29.10;;;;;;4844113;29;20444;-47
2022/09/14 03:01:12;;;;;;;9.67;2.50;;;12.60;99.90;;;;;;4844992;29;20468;-47
2022/09/14 03:03:38;;;;;;;10.07;2.70;;;12.60;99.90;;;;;;4851832;29;20446;-47
2022/09/14 03:06:04;;;;;;;9.57;2.70;;;12.50;99.90;;;;;;4847716;29;20512;-47
2022/09/14 03:08:30;;;;;;;10.67;2.20;;;12.50;99.90;;;;;;4844411;29;20259;-47
2022/09/14 03:10:56;;;;;;;8.37;2.63;;;12.50;99.90;;;;;;4848405;29;20548;-47
2022/09/14 03:13:22;;;;;;;18.07;2.50;;;12.50;1.00;;;;;;4846177;29;20197;-47
2022/09/14 03:15:47;;;;;;;11.00;2.57;;;12.60;1.00;;;;;;4843563;29;20205;-47
2022/09/14 03:18:13;;;;;;;12.33;3.07;;;12.60;1.00;;;;;;4844064;29;20197;-47
2022/09/14 03:20:38;;;;;;;10.50;2.67;;;12.60;1.00;;;;;;4847449;29;20337;-47
2022/09/14 03:23:07;;;;;;;8.67;3.33;;;12.60;1.00;;;;;;4843149;29;20209;-47
2022/09/14 03:25:37;;;;;;;12.60;2.90;;;12.70;1.00;;;;;;4849175;29;20636;-47
2022/09/14 03:28:03;;;;;;;13.73;2.40;;;12.70;1.00;;;;;;4842703;29;20454;-47
2022/09/14 03:30:29;;;;;;;8.10;2.87;;;12.70;1.00;;;;;;4850380;29;20576;-47
2022/09/14 03:32:57;;;;;;;8.17;2.50;;;12.80;1.00;;;;;;4844102;29;20816;-47
2022/09/14 03:35:22;;;;;;;12.60;3.00;;;12.70;1.00;;;;;;4845219;29;21187;-47
2022/09/14 03:37:48;;;;;;;6.67;2.90;;;12.70;1.00;;;;;;4843521;29;20465;-47
2022/09/14 03:40:15;;;;;;;6.50;2.50;;;12.60;1.00;;;;;;4844170;29;20207;-47
2022/09/14 03:42:45;;;;;;;19.97;3.53;;;12.50;1.00;;;;;;4844981;29;20288;-47
2022/09/14 03:45:12;;;;;;;5.77;3.00;;;12.50;1.00;;;;;;4843789;29;20472;-47
2022/09/14 03:47:39;;;;;;;9.87;2.50;;;12.50;1.00;;;;;;4843754;29;20497;-47
2022/09/14 03:50:06;;;;;;;5.60;2.30;;;12.40;1.00;;;;;;4844780;29;20618;-47
2022/09/14 03:52:33;;;;;;;9.60;2.97;;;12.40;1.00;;;;;;4843518;29;20485;-47
2022/09/14 03:54:59;;;;;;;11.17;3.43;;;12.30;1.00;;;;;;4841397;29;20570;-48
2022/09/14 03:57:24;;;;;;;5.20;2.60;;;12.30;1.00;;;;;;4845340;29;20476;-47
2022/09/14 03:59:50;;;;;;;9.17;2.50;;;12.30;1.00;;;;;;4843415;29;20200;-47
2022/09/14 04:02:15;;;;;;;8.70;3.80;;;12.20;1.00;;;;;;4843268;29;20201;-47
2022/09/14 04:04:41;;;;;;;5.90;2.57;;;12.20;1.00;;;;;;4843201;29;20237;-47
2022/09/14 04:07:07;;;;;;;7.63;2.80;;;12.20;1.00;;;;;;4843291;29;20296;-46
2022/09/14 04:09:32;;;;;;;7.60;2.90;;;12.20;1.00;;;;;;4846953;29;20652;-45
2022/09/14 04:11:59;;;;;;;8.63;2.87;;;12.20;1.00;;;;;;4846996;29;20248;-45
2022/09/14 04:14:25;;;;;;;12.03;3.50;;;12.20;1.00;;;;;;4843409;29;20208;-45
2022/09/14 04:16:50;;;;;;;13.50;3.57;;;12.10;1.00;;;;;;4849378;29;20445;-45
2022/09/14 04:19:16;;;;;;;11.80;3.60;;;12.10;1.00;;;;;;4858966;29;20492;-45
2022/09/14 04:21:42;;;;;;;13.57;3.53;;;12.10;1.00;;;;;;4859533;29;20265;-46
2022/09/14 04:24:11;;;;;;;13.70;4.80;;;12.10;1.00;;;;;;4858416;29;20197;-45
2022/09/14 04:26:36;;;;;;;16.90;4.00;;;12.20;1.00;;;;;;4857360;29;20197;-45
2022/09/14 04:29:02;;;;;;;13.80;3.80;;;12.20;1.00;;;;;;4857151;29;20484;-45
2022/09/14 04:31:28;;;;;;;9.57;3.23;;;12.20;1.00;;;;;;4859124;29;20193;-46
2022/09/14 04:33:55;;;;;;;10.60;3.40;;;12.30;1.00;;;;;;4858435;29;20257;-45
2022/09/14 04:36:22;;;;;;;11.10;3.10;;;12.30;4.30;;;;;;4859173;29;20204;-45
2022/09/14 04:38:52;;;;;;;9.70;3.20;;;12.50;1.00;;;;;;4858926;29;20453;-45
2022/09/14 04:41:19;;;;;;;5.70;3.37;;;12.60;1.00;;;;;;4856903;29;20458;-46
2022/09/14 04:43:47;;;;;;;9.07;3.60;;;12.60;1.00;;;;;;4859510;29;20421;-47
2022/09/14 04:46:18;;;;;;;9.00;3.40;;;12.70;1.00;;;;;;4858142;29;20497;-47
2022/09/14 04:48:44;;;;;;;7.73;2.87;;;12.70;1.00;;;;;;4856335;29;20485;-47
2022/09/14 04:51:18;;;;;;;7.63;3.33;;;12.70;1.00;;;;;;4858204;29;21086;-47
2022/09/14 04:53:46;;;;;;;11.67;3.27;;;12.70;1.00;;;;;;4846408;29;20200;-54
2022/09/14 04:56:13;;;;;;;7.60;2.80;;;12.80;1.00;;;;;;4843820;29;20434;-47
2022/09/14 04:58:43;;;;;;;13.30;3.50;;;12.90;1.00;;;;;;4842721;29;20445;-47
2022/09/14 05:01:17;;;;;;;10.10;3.23;;;12.80;1.00;;;;;;4851344;29;20514;-47
2022/09/14 05:03:43;;;;;;;12.73;3.80;;;12.80;1.00;;;;;;4863112;29;20448;-46
2022/09/14 05:06:16;;;;;;;16.30;3.93;;;12.80;1.00;;;;;;4849439;29;20565;-47
2022/09/14 05:08:43;;;;;;;5.13;3.07;;;12.80;1.00;;;;;;4857480;29;20488;-47
2022/09/14 05:11:12;;;;;;;5.90;3.03;;;12.80;1.00;;;;;;4852907;29;20533;-47
2022/09/14 05:13:37;;;;;;;8.87;3.40;;;12.80;1.00;;;;;;4859452;29;20429;-47
2022/09/14 05:16:13;;;;;;;10.50;3.87;;;12.80;1.00;;;;;;4843719;29;20446;-47
2022/09/14 05:18:39;;;;;;;8.67;3.50;;;12.80;1.00;;;;;;4841921;29;20196;-47
2022/09/14 05:21:08;;;;;;;8.10;3.50;;;12.80;1.00;;;;;;4841457;29;20465;-47
2022/09/14 05:23:34;;;;;;;8.37;3.77;;;12.90;1.00;;;;;;4844806;29;20289;-47
2022/09/14 05:26:00;;;;;;;8.53;3.67;;;12.80;1.00;;;;;;4841189;29;21164;-47
2022/09/14 05:28:26;;;;;;;9.17;3.00;;;12.80;1.00;;;;;;4852513;29;20587;-47
2022/09/14 05:30:52;;;;;;;11.40;3.13;;;12.90;1.00;;;;;;4857877;29;20537;-46
2022/09/14 05:33:19;;;;;;;8.50;3.63;;;12.90;1.00;;;;;;4849066;29;20629;-47
2022/09/14 05:35:45;;;;;;;6.73;3.13;;;12.90;1.00;;;;;;4843689;29;20201;-47
2022/09/14 05:38:11;;;;;;;6.80;3.10;;;12.90;1.00;;;;;;4859193;29;20525;-47
2022/09/14 05:40:36;;;;;;;11.20;3.40;;;13.00;99.90;;;;;;4862543;29;20966;-47
2022/09/14 05:43:02;;;;;;;12.60;2.90;;;13.10;99.90;;;;;;4863642;29;20613;-46
2022/09/14 05:45:28;;;;;;;7.93;3.33;;;13.10;99.90;;;;;;4861709;29;20590;-46
2022/09/14 05:47:53;;;;;;;8.27;3.60;;;13.10;99.90;;;;;;4864690;29;20554;-47
2022/09/14 05:50:19;;;;;;;9.13;3.63;;;13.10;99.90;;;;;;4861193;29;20813;-47
2022/09/14 05:52:45;;;;;;;5.43;2.70;;;13.10;99.90;;;;;;4869601;29;20177;-47
2022/09/14 05:55:11;;;;;;;8.80;3.67;;;13.20;99.90;;;;;;4870128;29;20277;-48
2022/09/14 05:57:37;;;;;;;16.03;3.57;;;13.20;99.90;;;;;;4871741;29;20272;-47
2022/09/14 06:00:04;;;;;;;9.10;2.80;;;13.20;99.90;;;;;;4867343;29;20468;-47
2022/09/14 06:02:29;;;;;;;8.80;3.00;;;13.20;64.50;;;;;;4871076;29;20176;-52
2022/09/14 06:04:55;;;;;;;11.27;2.90;;;13.30;60.00;;;;;;4870693;29;20441;-46
2022/09/14 06:07:21;;;;;;;5.90;2.40;;;13.30;43.20;;;;;;4858383;29;20205;-45
2022/09/14 06:09:47;;;;;;;4.60;2.80;;;13.40;1.00;;;;;;4856367;29;20251;-46
2022/09/14 06:12:13;;;;;;;12.00;3.40;;;13.40;1.00;;;;;;4859007;29;20647;-45
2022/09/14 06:14:39;;;;;;;6.07;2.73;;;13.40;1.00;;;;;;4859180;29;20414;-45
2022/09/14 06:17:05;;;;;;;8.10;2.97;;;13.50;1.00;;;;;;4856958;29;20295;-46
2022/09/14 06:19:31;;;;;;;15.70;3.17;;;13.60;1.00;;;;;;4858443;29;20524;-45
2022/09/14 06:21:57;;;;;;;7.27;2.80;;;13.70;1.00;;;;;;4858044;29;20184;-46
2022/09/14 06:24:22;;;;;;;11.17;4.07;;;13.80;1.00;;;;;;4858102;29;20275;-45
2022/09/14 06:26:48;;;;;;;13.70;2.87;;;13.90;99.90;;;;;;4857570;29;20188;-46
2022/09/14 06:29:13;;;;;;;6.70;3.13;;;13.90;99.90;;;;;;4858003;29;20559;-46
2022/09/14 06:31:39;;;;;;;10.70;2.97;;;14.00;99.90;;;;;;4856147;29;20196;-45
2022/09/14 06:34:05;;;;;;;6.77;2.97;;;14.10;99.90;;;;;;4857341;29;20197;-45
2022/09/14 06:36:30;;;;;;;4.53;2.73;;;14.20;99.90;;;;;;4856194;29;20743;-46
2022/09/14 06:38:58;;;;;;;8.47;2.70;;;14.30;1.00;;;;;;4856594;29;20204;-46
2022/09/14 06:41:29;;;;;;;8.40;2.53;;;14.30;1.00;;;;;;4856583;29;20207;-46
2022/09/14 06:43:56;;;;;;;10.90;3.40;;;14.40;99.90;;;;;;4857828;29;20490;-46
2022/09/14 06:46:25;;;;;;;6.80;3.10;;;14.40;99.90;;;;;;4857594;29;20560;-45
2022/09/14 06:48:57;;;;;;;10.40;3.20;;;14.50;1.00;;;;;;4859412;29;20485;-45
2022/09/14 06:51:31;;;;;;;7.60;2.87;;;14.60;1.00;;;;;;4837324;29;20458;-46
2022/09/14 06:53:59;;;;;;;13.90;3.50;;;14.60;1.00;;;;;;4842866;29;20792;-46
2022/09/14 06:56:25;;;;;;;8.43;3.20;;;14.60;99.90;;;;;;4860271;29;20525;-46
2022/09/14 06:58:52;;;;;;;7.77;2.90;;;14.70;99.90;;;;;;4855766;29;20461;-46
2022/09/14 07:01:18;;;;;;;9.10;3.10;;;14.70;99.90;;;;;;4857204;29;20442;-46
2022/09/14 07:03:45;;;;;;;5.67;3.23;;;14.80;99.90;;;;;;4856560;29;20811;-46
2022/09/14 07:06:18;;;;;;;10.90;3.17;;;14.90;99.90;;;;;;4857244;29;20452;-46
2022/09/14 07:08:44;;;;;;;11.90;2.77;;;15.00;99.90;;;;;;4856031;29;20546;-46
2022/09/14 07:11:12;;;;;;;9.77;2.53;;;15.10;1.20;;;;;;4859274;29;20446;-46
2022/09/14 07:13:37;;;;;;;7.00;2.73;;;15.20;1.00;;;;;;4861201;29;20165;-46
2022/09/14 07:16:04;;;;;;;7.70;3.13;;;15.20;99.90;;;;;;4859421;29;21173;-53
2022/09/14 07:18:32;;;;;;;10.00;2.70;;;15.30;1.00;;;;;;4861043;29;20276;-46
2022/09/14 07:21:16;;;;;;;7.57;2.70;;;15.70;99.90;;;;;;4860126;29;20465;-46
2022/09/14 07:23:44;;;;;;;7.83;2.43;;;16.40;1.00;;;;;;4843844;29;21131;-46
2022/09/14 07:26:11;;;;;;;7.37;2.40;;;17.20;99.90;;;;;;4859511;29;20803;-46
2022/09/14 07:28:38;;;;;;;11.30;2.60;;;17.70;1.00;;;;;;4859928;29;20473;-47
2022/09/14 07:31:04;;;;;;;6.03;2.10;;;18.30;1.00;;;;;;4859626;29;20501;-46
2022/09/14 07:33:30;;;;;;;11.90;2.40;;;18.80;99.90;;;;;;4860978;29;20418;-46
2022/09/14 07:36:09;;;;;;;11.37;2.30;;;19.20;1.00;;;;;;4844336;29;20489;-46
2022/09/14 07:38:35;;;;;;;4.90;2.07;;;19.50;1.00;;;;;;4860194;29;20245;-53
2022/09/14 07:41:02;;;;;;;7.50;1.80;;;19.80;1.00;;;;;;4846462;29;20439;-46
2022/09/14 07:43:28;;;;;;;8.50;2.10;;;19.80;1.00;;;;;;4857077;29;20223;-48
2022/09/14 07:45:54;;;;;;;6.83;1.87;;;19.90;1.00;;;;;;4879805;29;20559;-48
2022/09/14 07:48:20;;;;;;;4.30;1.70;;;20.30;1.00;;;;;;4877287;29;20513;-47
2022/09/14 07:50:46;;;;;;;6.53;2.73;;;20.40;1.00;;;;;;4860859;29;20398;-46
2022/09/14 07:53:13;;;;;;;10.30;2.10;;;20.20;1.00;;;;;;4860112;29;20272;-59
2022/09/14 07:55:39;;;;;;;9.60;2.27;;;20.30;1.00;;;;;;4860019;29;20189;-46
2022/09/14 07:58:05;;;;;;;5.90;1.93;;;20.90;1.00;;;;;;4860408;29;20434;-46
2022/09/14 08:00:32;;;;;;;12.20;2.00;;;21.50;1.00;;;;;;4860818;29;20425;-47
2022/09/14 08:02:58;;;;;;;5.40;2.00;;;21.70;1.00;;;;;;4860676;29;20446;-49
2022/09/14 08:05:24;;;;;;;3.20;1.67;;;21.60;1.00;;;;;;4860655;29;21216;-46
2022/09/14 08:07:54;;;;;;;17.63;2.30;;;21.40;1.00;;;;;;4860672;29;20422;-46
2022/09/14 08:10:20;;;;;;;21.20;3.00;;;21.20;1.00;;;;;;4860597;29;21260;-46
2022/09/14 08:12:50;;;;;;;6.37;1.50;;;21.30;1.00;;;;;;4860174;29;20422;-46
2022/09/14 08:15:16;;;;;;;6.37;1.70;;;21.20;1.00;;;;;;4860530;29;20478;-46
2022/09/14 08:17:42;;;;;;;10.73;1.93;;;21.10;1.00;;;;;;4859868;29;20824;-49
2022/09/14 08:20:08;;;;;;;5.40;1.63;;;20.70;1.00;;;;;;4859831;29;20425;-46
2022/09/14 08:22:33;;;;;;;4.23;1.50;;;20.30;1.00;;;;;;4860499;29;20188;-46
2022/09/14 08:24:59;;;;;;;5.53;1.70;;;20.00;1.00;;;;;;4860514;29;20417;-47
2022/09/14 08:27:24;;;;;;;10.03;1.73;;;19.80;1.00;;;;;;4859989;29;20845;-46
2022/09/14 08:29:50;;;;;;;7.10;2.00;;;19.70;1.00;;;;;;4860204;29;20591;-46
2022/09/14 08:32:16;;;;;;;2.77;1.33;;;19.60;1.00;;;;;;4860059;29;20564;-46
2022/09/14 08:34:41;;;;;;;5.90;1.37;;;19.60;1.00;;;;;;4859842;29;20181;-46
2022/09/14 08:37:09;;;;;;;5.63;1.80;;;19.50;1.00;;;;;;4860070;29;20178;-46
2022/09/14 08:39:34;;;;;;;10.40;1.77;;;19.60;1.00;;;;;;4859903;29;20193;-46
2022/09/14 08:42:01;;;;;;;9.40;2.07;;;19.70;1.00;;;;;;4859786;29;20883;-46
2022/09/14 08:45:04;;;;;;;8.60;1.80;;;19.90;1.00;;;;;;4860898;29;20233;-47
2022/09/14 08:47:37;;;;;;;7.97;2.00;;;20.30;1.00;;;;;;4864681;29;20553;-46
2022/09/14 08:50:13;;;;;;;12.40;2.23;;;20.40;1.00;;;;;;4869978;29;20508;-46
2022/09/14 08:52:47;;;;;;;10.40;1.50;;;20.40;1.00;;;;;;4867575;29;20406;-46
2022/09/14 08:55:42;;;;;;;4.63;1.63;;;20.20;1.00;;;;;;4868584;29;20403;-47
2022/09/14 08:58:34;;;;;;;15.33;2.50;;;20.30;1.00;;;;;;4865887;29;20517;-47
2022/09/14 09:01:16;;;;;;;8.93;1.50;;;21.00;1.00;;;;;;4870292;29;20472;-46
2022/09/14 09:03:50;;;;;;;9.47;1.40;;;21.40;99.90;;;;;;4888052;29;20429;-47
2022/09/14 09:06:22;;;;;;;4.80;1.50;;;21.70;99.90;;;;;;4888321;29;20420;-46
2022/09/14 09:09:15;;;;;;;11.93;1.37;;;22.00;99.90;;;;;;4887342;29;20778;-46
2022/09/14 09:11:45;;;;;;;4.83;1.70;;;22.40;99.90;;;;;;4885203;29;20474;-47
2022/09/14 09:14:29;;;;;;;5.53;1.70;;;22.40;99.90;;;;;;4871811;29;20414;-48
2022/09/14 09:16:59;;;;;;;8.33;1.47;;;22.10;99.90;;;;;;4872247;29;20433;-53
2022/09/14 09:19:31;;;;;;;4.27;1.40;;;21.30;99.90;;;;;;4869130;29;20426;-49
2022/09/14 09:21:58;;;;;;;4.30;1.43;;;20.80;99.90;;;;;;4870691;29;20426;-49
2022/09/14 09:24:42;;;;;;;4.37;1.50;;;20.20;99.90;;;;;;4871508;29;20464;-49
2022/09/14 09:27:13;;;;;;;2.67;1.40;;;19.80;99.90;;;;;;4872403;29;20430;-47
2022/09/14 09:29:39;;;;;;;2.17;1.30;;;19.90;99.90;;;;;;4873617;29;20998;-49
2022/09/14 09:32:26;;;;;;;7.27;1.60;;;20.00;99.90;;;;;;4871592;29;20398;-48
2022/09/14 09:34:52;;;;;;;3.70;1.10;;;20.20;99.90;;;;;;4869554;29;20418;-48
2022/09/14 09:37:22;;;;;;;6.20;1.30;;;20.20;99.90;;;;;;4869327;29;20446;-48
2022/09/14 09:39:49;;;;;;;10.87;1.80;;;20.10;99.90;;;;;;4869987;29;20445;-48
2022/09/14 09:42:24;;;;;;;9.80;1.53;;;20.10;99.90;;;;;;4871113;29;20464;-49
2022/09/14 09:44:54;;;;;;;6.07;1.60;;;20.00;99.90;;;;;;4872533;29;20406;-48
2022/09/14 09:47:31;;;;;;;10.53;1.70;;;20.00;99.90;;;;;;4870510;29;20477;-48
2022/09/14 09:50:01;;;;;;;13.37;1.87;;;20.00;99.90;;;;;;4872597;29;20481;-48
2022/09/14 09:52:30;;;;;;;4.40;1.60;;;20.00;99.90;;;;;;4871568;29;20406;-51
2022/09/14 09:54:57;;;;;;;7.27;1.40;;;20.10;99.90;;;;;;4870909;29;20426;-46
2022/09/14 09:57:31;;;;;;;7.00;2.50;;;20.30;99.90;;;;;;4871838;29;20445;-48
2022/09/14 10:00:12;;;;;;;3.53;1.57;;;20.30;99.90;;;;;;4868276;29;20450;-49
2022/09/14 10:02:39;;;;;;;5.17;1.57;;;20.30;99.90;;;;;;4868769;29;20509;-47
2022/09/14 10:05:08;;;;;;;7.70;1.70;;;20.30;99.90;;;;;;4865790;29;21193;-46
2022/09/14 10:07:38;;;;;;;4.07;1.50;;;20.30;99.90;;;;;;4864335;29;20451;-46
2022/09/14 10:10:10;;;;;;;5.57;1.43;;;20.00;99.90;;;;;;4861888;29;20477;-46
2022/09/14 10:12:44;;;;;;;3.83;1.30;;;19.60;99.90;;;;;;4886078;29;20440;-46
2022/09/14 10:15:16;;;;;;;13.13;1.97;;;19.30;99.90;;;;;;4871778;29;20445;-47
2022/09/14 10:18:00;;;;;;;6.07;1.57;;;19.10;99.90;;;;;;4869315;29;20438;-49
2022/09/14 10:20:26;;;;;;;11.47;1.97;;;18.80;99.90;;;;;;4868455;29;20476;-48
2022/09/14 10:22:52;;;;;;;5.83;1.60;;;18.80;99.90;;;;;;4868680;29;20468;-48
2022/09/14 10:25:18;;;;;;;4.60;1.20;;;18.80;99.90;;;;;;4868112;29;20462;-48
2022/09/14 10:27:58;;;;;;;5.03;1.60;;;18.70;99.90;;;;;;4870079;29;20231;-49
2022/09/14 10:30:35;;;;;;;9.10;1.67;;;18.70;99.90;;;;;;4875002;29;20487;-46
2022/09/14 10:33:07;;;;;;;3.40;1.67;;;19.10;99.90;;;;;;4871892;29;20429;-46
2022/09/14 10:35:55;;;;;;;5.87;1.43;;;19.40;99.90;;;;;;4868379;29;20421;-47
2022/09/14 10:38:30;;;;;;;5.00;1.60;;;19.50;99.90;;;;;;4871752;29;20425;-49
2022/09/14 10:41:24;;;;;;;9.93;1.50;;;19.50;99.90;;;;;;4869959;29;20462;-48
2022/09/14 10:43:58;;;;;;;5.33;1.37;;;19.20;99.90;;;;;;4832129;29;20509;-46
2022/09/14 10:46:36;;;;;;;5.20;1.77;;;18.80;99.90;;;;;;4872437;29;20472;-46
2022/09/14 10:49:39;;;;;;;5.93;1.67;;;18.80;99.90;;;;;;4874151;29;20496;-48
2022/09/14 10:52:17;;;;;;;5.67;1.80;;;18.90;99.90;;;;;;4873971;29;20444;-48
2022/09/14 10:54:58;;;;;;;7.10;1.80;;;18.90;99.90;;;;;;4875305;29;20405;-48
2022/09/14 10:57:48;;;;;;;8.17;1.77;;;19.10;99.90;;;;;;4875166;29;20452;-46
2022/09/14 11:00:21;;;;;;;7.13;1.70;;;19.40;99.90;;;;;;4871424;29;20835;-46
2022/09/14 11:03:09;;;;;;;7.90;1.70;;;19.80;99.90;;;;;;4873351;29;20441;-46
2022/09/14 11:05:41;;;;;;;6.63;1.47;;;20.40;99.90;;;;;;4873216;29;20430;-55
2022/09/14 11:08:29;;;;;;;7.40;1.80;;;21.20;99.90;;;;;;4870639;29;20440;-46
2022/09/14 11:11:33;;;;;;;5.67;1.30;;;22.30;99.90;;;;;;4887906;29;20939;-47
2022/09/14 11:14:24;;;;;;;11.20;1.90;;;22.50;99.90;;;;;;4849811;29;20828;-47
2022/09/14 11:17:17;;;;;;;8.93;1.60;;;21.80;99.90;;;;;;4889809;29;20921;-46
2022/09/14 11:20:05;;;;;;;6.93;3.33;;;21.20;99.90;;;;;;4868024;29;20476;-46
2022/09/14 11:22:43;;;;;;;6.43;2.17;;;20.90;99.90;;;;;;4870926;29;20472;-46
2022/09/14 11:25:18;;;;;;;5.83;1.57;;;20.60;99.90;;;;;;4872447;29;21047;-46
2022/09/14 11:27:50;;;;;;;11.57;2.03;;;20.40;99.90;;;;;;4890985;29;20445;-46
2022/09/14 11:30:18;;;;;;;9.20;2.00;;;20.30;99.90;;;;;;4875360;29;20479;-46
2022/09/14 11:33:06;;;;;;;10.40;4.00;;;20.30;99.90;;;;;;4870744;29;20452;-46
2022/09/14 11:35:43;;;;;;;7.37;1.97;;;19.90;99.90;;;;;;4869995;29;20441;-47
2022/09/14 11:38:21;;;;;;;6.73;1.70;;;19.70;99.90;;;;;;4871191;29;20445;-45
2022/09/14 11:41:13;;;;;;;12.10;2.10;;;19.40;99.90;;;;;;4869454;29;20448;-46
2022/09/14 11:43:48;;;;;;;9.27;2.13;;;19.10;99.90;;;;;;4872417;29;20417;-45
2022/09/14 11:46:37;;;;;;;4.87;1.80;;;18.90;99.90;;;;;;4873474;29;20496;-46
2022/09/14 11:49:16;;;;;;;12.53;1.97;;;18.70;99.90;;;;;;4872482;29;20524;-46
2022/09/14 11:52:09;;;;;;;7.20;1.60;;;18.50;99.90;;;;;;4872137;29;20437;-48
2022/09/14 11:54:39;;;;;;;7.57;2.10;;;18.40;99.90;;;;;;4870625;29;20433;-46
2022/09/14 11:57:06;;;;;;;11.10;1.97;;;18.40;99.90;;;;;;4863452;29;20639;-49
2022/09/14 11:59:37;;;;;;;6.20;1.97;;;18.20;99.90;;;;;;4868554;29;20565;-49
2022/09/14 12:02:21;;;;;;;6.27;2.17;;;18.20;99.90;;;;;;4868992;29;20446;-50
2022/09/14 12:05:09;;;;;;;10.17;2.10;;;18.10;99.90;;;;;;4864979;29;20476;-49
2022/09/14 12:07:41;;;;;;;4.23;2.13;;;18.10;99.90;;;;;;4866408;29;20466;-48
2022/09/14 12:10:13;;;;;;;11.43;2.20;;;18.10;99.90;;;;;;4872844;29;20456;-54
2022/09/14 12:13:05;;;;;;;7.60;1.50;;;18.10;99.90;;;;;;4870005;29;20446;-54
2022/09/14 12:15:35;;;;;;;7.07;2.10;;;18.20;1.00;;;;;;4866813;29;20453;-48
2022/09/14 12:18:04;;;;;;;8.93;2.00;;;18.50;1.00;;;;;;4869889;29;20449;-46
2022/09/14 12:20:39;;;;;;;10.60;1.80;;;18.80;1.00;;;;;;4852454;29;21181;-46
2022/09/14 12:23:25;;;;;;;5.93;1.97;;;19.10;1.00;;;;;;4858251;29;20452;-46
2022/09/14 12:26:10;;;;;;;9.93;2.07;;;19.20;99.90;;;;;;4860441;29;20453;-46
2022/09/14 12:28:39;;;;;;;11.37;2.10;;;19.90;99.90;;;;;;4865122;29;20553;-46
2022/09/14 12:31:06;;;;;;;6.17;1.63;;;20.70;99.90;;;;;;4867083;29;20446;-46
2022/09/14 12:33:35;;;;;;;9.40;1.73;;;21.20;99.90;;;;;;4868645;29;20959;-47
2022/09/14 12:36:12;;;;;;;5.57;1.90;;;21.30;99.90;;;;;;4868971;29;20498;-45
2022/09/14 12:39:03;;;;;;;6.33;1.77;;;21.00;99.90;;;;;;4853447;29;20433;-52
2022/09/14 12:41:35;;;;;;;10.73;2.07;;;20.60;99.90;;;;;;4867822;29;20445;-46
2022/09/14 12:44:03;;;;;;;11.77;1.80;;;19.90;99.90;;;;;;4867399;29;20453;-45
2022/09/14 12:46:37;;;;;;;8.97;1.80;;;19.60;99.90;;;;;;4870366;29;20489;-46
2022/09/14 12:49:34;;;;;;;6.60;2.20;;;19.30;99.90;;;;;;4872488;29;20474;-46
2022/09/14 12:52:10;;;;;;;8.50;2.27;;;18.90;99.90;;;;;;4865053;29;20937;-50
2022/09/14 12:54:46;;;;;;;4.77;1.90;;;18.80;99.90;;;;;;4859786;29;21655;-46
2022/09/14 12:57:44;;;;;;;7.67;2.10;;;18.80;99.90;;;;;;4857956;29;20456;-48
2022/09/14 13:00:17;;;;;;;9.07;2.50;;;18.90;99.90;;;;;;4857607;29;20460;-48
2022/09/14 13:03:24;;;;;;;12.40;2.00;;;19.10;99.90;;;;;;4850091;29;20970;-48
2022/09/14 13:05:50;;;;;;;6.80;2.70;;;19.60;99.90;;;;;;4841008;29;20414;-48
2022/09/14 13:08:21;;;;;;;8.57;1.80;;;20.20;99.90;;;;;;4855318;29;20448;-49
2022/09/14 13:10:50;;;;;;;7.47;2.00;;;20.40;99.90;;;;;;4857234;29;23311;-48
2022/09/14 13:13:27;;;;;;;4.30;1.83;;;20.30;99.90;;;;;;4852983;29;20465;-48